Latest Weather Observations for White Cliffs AWS

IDN60801

Issued at 6:34 am EDT Thursday 18 December 2014 (issued every 30 minutes, with the page automatically refreshed every 10 minutes)

About weather observations | Map of weather stations | Latest weather observations for NSW | Other Formats
Station Details ID: 046129 Name: WHITE CLIFFS AWS Lat: -30.85 Lon: 143.07 Height: 158.0 m
Data from the previous 72 hours. | See also: Recent months at White Cliffs AWS
Date/Time
EDT
Temp
°C
App
Temp
°C
Dew
Point
Rel
Hum
%
Delta-T
°C
Wind Press
QNH
hPa
Press
MSL
hPa
Rain
since 9 am
mm
Dir
 
Spd
km/h
Gust
km/h
Spd
kts
Gust
kts
18/06:30am 21.0 17.2 -0.9 23 9.7 ESE 9 9 5 5 1007.0 1006.1 0.0
18/06:00am 21.8 17.9 -1.5 21 10.3 ESE 9 11 5 6 1006.7 1005.8 0.0
18/05:30am 22.8 18.5 -1.3 20 10.7 ESE 11 13 6 7 1006.6 1005.7 0.0
18/05:00am 22.7 17.7 -1.4 20 10.7 SSE 15 20 8 11 1006.5 1005.6 0.0
18/04:30am 22.7 18.1 -1.4 20 10.7 S 13 17 7 9 1006.2 1005.2 0.0
18/04:00am 22.2 17.3 -0.5 22 10.2 SSW 15 17 8 9 1006.4 1005.5 0.0
18/03:30am 22.9 18.7 -1.2 20 10.8 S 11 13 6 7 1006.2 1005.2 0.0
18/03:00am 23.7 20.2 -1.3 19 11.2 SE 7 11 4 6 1006.2 1005.2 0.0
18/02:30am 24.6 20.0 -1.3 18 11.7 SSE 13 17 7 9 1005.7 1004.7 0.0
18/02:00am 24.7 20.1 -1.2 18 11.8 SE 13 19 7 10 1005.5 1004.5 0.0
18/01:30am 24.1 19.9 -0.9 19 11.3 ESE 11 13 6 7 1006.0 1005.0 0.0
18/01:00am 25.4 20.4 -1.4 17 12.2 SE 15 20 8 11 1006.2 1005.2 0.0
18/12:30am 25.4 20.4 -1.4 17 12.1 SSE 15 19 8 10 1006.4 1005.5 0.0
18/12:00am 25.6 21.7 -1.2 17 12.2 SE 9 13 5 7 1006.9 1006.0 0.0
 
Date/Time
EDT
Temp
°C
App
Temp
°C
Dew
Point
Rel
Hum
%
Delta-T
°C
Wind Press
QNH
hPa
Press
MSL
hPa
Rain
since 9 am
mm
Dir
 
Spd
km/h
Gust
km/h
Spd
kts
Gust
kts
17/11:30pm 26.3 21.3 -1.5 16 12.7 SE 15 17 8 9 1006.5 1005.6 0.0
17/11:00pm 26.3 21.6 -1.5 16 12.7 SSE 13 15 7 8 1006.6 1005.7 0.0
17/10:30pm 26.3 22.0 -1.5 16 12.7 SE 11 13 6 7 1006.4 1005.5 0.0
17/10:00pm 27.4 22.4 -1.5 15 13.3 SE 15 17 8 9 1005.8 1004.8 0.0
17/09:30pm 27.9 23.2 -2.0 14 13.7 SE 13 15 7 8 1005.8 1004.8 0.0
17/09:00pm 28.6 23.9 -1.5 14 14.0 SSE 13 15 7 8 1006.0 1005.0 0.0
17/08:30pm 29.9 25.6 -1.5 13 14.7 S 11 15 6 8 1005.6 1004.6 0.0
17/08:00pm 31.0 25.9 -1.7 12 15.4 S 15 20 8 11 1005.4 1004.4 0.0
17/07:30pm 31.5 27.6 -1.3 12 15.6 SSW 9 15 5 8 1005.1 1004.1 0.0
17/07:00pm 31.7 26.7 -1.2 12 15.7 SSE 15 26 8 14 1004.9 1003.9 0.0
17/06:30pm 31.6 26.6 -1.2 12 15.6 SSW 15 22 8 12 1004.8 1003.8 0.0
17/06:00pm 31.8 27.6 -1.1 12 15.8 S 11 20 6 11 1004.9 1003.9 0.0
17/05:30pm 31.4 26.0 -1.4 12 15.6 SSW 17 22 9 12 1005.2 1004.2 0.0
17/05:00pm 31.2 25.9 -0.5 13 15.3 SSW 17 24 9 13 1005.3 1004.3 0.0
17/04:30pm 31.7 27.2 -0.1 13 15.4 S 13 24 7 13 1005.5 1004.5 0.0
17/04:00pm 30.7 26.3 0.2 14 14.8 SSE 13 24 7 13 1005.7 1004.7 0.0
17/03:30pm 30.0 25.1 -0.4 14 14.5 SSW 15 26 8 14 1006.1 1005.1 0.0
17/03:00pm 30.1 25.7 0.6 15 14.4 S 13 24 7 13 1006.4 1005.5 0.0
17/02:30pm 29.4 24.7 1.0 16 13.8 S 15 26 8 14 1006.6 1005.7 0.0
17/02:00pm 28.4 23.8 1.8 18 13.1 S 15 30 8 16 1006.8 1005.9 0.0
17/01:30pm 28.2 22.6 0.9 17 13.2 S 20 30 11 16 1006.9 1006.0 0.0
17/01:00pm 26.4 20.5 1.7 20 12.0 SSE 22 35 12 19 1007.1 1006.2 0.0
17/12:30pm 26.3 20.5 2.3 21 11.7 S 22 30 12 16 1007.5 1006.6 0.0
17/12:00pm 25.7 20.4 3.0 23 11.2 SSE 20 28 11 15 1007.6 1006.7 0.0
17/11:30am 25.2 20.2 3.8 25 10.7 SSE 19 28 10 15 1008.2 1007.3 0.0
17/11:00am 24.8 19.8 4.5 27 10.2 SSE 20 28 11 15 1008.1 1007.2 0.0
17/10:30am 23.8 18.9 4.2 28 9.7 SSE 19 30 10 16 1008.2 1007.3 0.0
17/10:00am 23.2 17.4 4.2 29 9.4 SSE 24 32 13 17 1008.3 1007.4 0.0
17/09:30am 22.4 16.1 4.0 30 9.0 SSE 26 32 14 17 1008.3 1007.4 0.0
17/09:00am 21.8 15.9 3.9 31 8.7 SE 24 32 13 17 1008.4 1007.5 0.0
17/08:30am 21.1 14.4 3.8 32 8.4 SE 28 39 15 21 1008.3 1007.4 0.0
17/08:00am 20.3 13.3 3.9 34 7.9 SSE 30 35 16 19 1008.1 1007.2 0.0
17/07:30am 19.8 13.1 3.9 35 7.6 SSE 28 41 15 22 1008.1 1007.2 0.0
17/07:00am 19.4 12.4 4.3 37 7.3 SSE 30 37 16 20 1007.3 1006.4 0.0
17/06:30am 19.3 12.8 4.6 38 7.1 S 28 35 15 19 1007.0 1006.1 0.0
17/06:00am 19.8 12.4 5.1 38 7.3 S 33 43 18 23 1006.4 1005.5 0.0
17/05:30am 20.3 12.5 5.1 37 7.5 SSE 35 48 19 26 1005.7 1004.7 0.0
17/05:00am 21.2 14.5 5.5 36 7.9 S 30 39 16 21 1005.8 1004.8 0.0
17/04:30am 22.2 15.2 6.0 35 8.2 SSE 32 43 17 23 1005.4 1004.4 0.0
17/04:00am 23.0 16.4 5.9 33 8.8 S 30 39 16 21 1005.1 1004.1 0.0
17/03:30am 23.5 16.6 6.3 33 8.9 S 32 41 17 22 1005.1 1004.1 0.0
17/03:00am 24.1 17.1 6.8 33 9.1 S 33 43 18 23 1005.2 1004.2 0.0
17/02:30am 25.0 18.3 8.1 34 9.1 S 33 43 18 23 1005.3 1004.3 0.0
17/02:00am 25.9 19.9 8.8 34 9.4 S 30 39 16 21 1005.0 1004.0 0.0
17/01:30am 26.9 20.6 8.8 32 9.9 S 32 41 17 22 1004.5 1003.5 0.0
17/01:00am 27.8 21.4 8.6 30 10.6 S 32 39 17 21 1004.1 1003.1 0.0
17/12:30am 28.8 21.8 8.5 28 11.2 S 35 46 19 25 1003.8 1002.8 0.0
17/12:18am 29.2 22.0 7.7 26 11.7 S 35 54 19 29 1003.6 1002.6 0.0
17/12:00am 30.1 21.5 6.7 23 12.7 SSW 41 50 22 27 1003.1 1002.2 0.0
 
Date/Time
EDT
Temp
°C
App
Temp
°C
Dew
Point
Rel
Hum
%
Delta-T
°C
Wind Press
QNH
hPa
Press
MSL
hPa
Rain
since 9 am
mm
Dir
 
Spd
km/h
Gust
km/h
Spd
kts
Gust
kts
16/11:30pm 31.8 25.4 6.8 21 13.6 S 30 43 16 23 1002.5 1001.6 0.0
16/11:05pm 32.5 28.8 9.3 24 13.2 W 19 46 10 25 1002.1 1001.2 0.0
16/11:00pm 31.0 28.4 9.3 26 12.3 WNW 13 17 7 9 1001.7 1000.8 0.0
16/10:30pm 32.5 29.9 9.3 24 13.2 WSW 13 19 7 10 1001.6 1000.7 0.0
16/10:00pm 33.0 29.0 10.4 25 13.2 SW 22 33 12 18 1001.7 1000.8 0.0
16/09:54pm 32.2 29.5 10.3 26 12.6 WNW 15 33 8 18 1001.9 1001.0 0.0
16/09:30pm 32.5 29.3 6.7 20 14.1 NW 13 13 7 7 1001.3 1000.4 0.0
16/09:00pm 33.9 30.7 7.0 19 14.9 WNW 13 19 7 10 1001.2 1000.3 0.0
16/08:30pm 35.2 30.6 6.5 17 15.8 WNW 20 26 11 14 1001.1 1000.2 0.0
16/08:00pm 36.5 30.8 6.6 16 16.7 WNW 26 35 14 19 1001.0 1000.1 0.0
16/07:30pm 37.1 31.1 7.1 16 16.9 NW 28 33 15 18 1000.9 1000.0 0.0
16/07:00pm 37.7 30.8 6.6 15 17.5 W 32 39 17 21 1000.8 999.9 0.0
16/06:30pm 38.0 30.4 5.9 14 17.8 W 35 46 19 25 1000.7 999.8 0.0
16/06:19pm 38.2 30.6 6.0 14 17.9 W 35 54 19 29 1000.5 999.5 0.0
16/06:00pm 38.1 30.3 4.9 13 18.2 W 35 48 19 26 1000.5 999.5 0.0
16/05:38pm 38.5 30.8 5.2 13 18.3 W 35 54 19 29 1000.4 999.4 0.0
16/05:30pm 38.6 30.5 5.3 13 18.4 W 37 48 20 26 1000.5 999.5 0.0
16/05:00pm 38.6 29.9 4.1 12 18.8 W 39 52 21 28 1000.8 999.9 0.0
16/04:41pm 39.3 31.7 0.6 9 19.9 WNW 30 50 16 27 1001.2 1000.3 0.0
16/04:30pm 38.6 30.8 1.6 10 19.3 WNW 32 46 17 25 1001.5 1000.6 0.0
16/04:25pm 38.1 31.0 1.2 10 19.1 WNW 28 46 15 25 1001.5 1000.6 0.0
16/04:00pm 38.3 30.7 2.7 11 18.9 WNW 32 43 17 23 1001.9 1001.0 0.0
16/03:57pm 37.8 30.1 2.3 11 18.6 WNW 32 50 17 27 1002.0 1001.1 0.0
16/03:42pm 38.9 31.1 1.8 10 19.4 WNW 32 46 17 25 1002.1 1001.2 0.0
16/03:30pm 38.6 31.5 1.6 10 19.3 WNW 28 43 15 23 1002.3 1001.4 0.0
16/03:00pm 37.9 30.2 2.4 11 18.7 WNW 32 43 17 23 1002.9 1002.0 0.0
16/02:30pm 37.0 30.7 4.0 13 17.7 WNW 26 41 14 22 1003.1 1002.2 0.0
16/02:00pm 35.8 31.7 7.8 18 15.9 NW 19 28 10 15 1003.7 1002.7 0.0
16/01:30pm 33.9 31.5 8.5 21 14.4 W 11 17 6 9 1004.0 1003.0 0.0
16/01:00pm 32.9 28.7 8.4 22 13.8 SW 20 26 11 14 1004.0 1003.0 0.0
16/12:30pm 32.9 28.7 8.4 22 13.8 SW 20 26 11 14 1003.8 1002.8 0.0
16/12:00pm 32.0 28.0 8.9 24 13.1 SW 20 26 11 14 1003.9 1002.9 0.0
16/11:30am 31.1 26.9 8.2 24 12.7 SW 20 28 11 15 1004.2 1003.2 0.0
16/11:00am 30.8 27.1 7.9 24 12.7 SSW 17 24 9 13 1004.7 1003.7 0.0
16/10:30am 30.8 26.1 7.9 24 12.6 SSW 22 28 12 15 1004.6 1003.6 0.0
16/10:00am 30.1 24.7 7.9 25 12.3 SSW 26 30 14 16 1004.5 1003.5 0.0
16/09:30am 30.2 24.4 8.0 25 12.2 SSW 28 35 15 19 1004.0 1003.0 0.0
16/09:00am 30.6 27.4 8.3 25 12.4 SSW 15 20 8 11 1003.3 1002.3 0.0
16/08:30am 30.7 27.0 7.8 24 12.6 SSW 17 22 9 12 1002.5 1001.6 0.0
16/08:00am 31.0 28.0 7.5 23 13.0 SSW 13 19 7 10 1001.8 1000.9 0.0
16/07:30am 29.7 26.6 5.7 22 12.7 W 11 13 6 7 1001.1 1000.2 0.0
16/07:00am 27.4 23.8 5.1 24 11.6 W 13 15 7 8 1000.8 999.9 0.0
16/06:30am 27.4 23.7 4.5 23 11.7 WNW 13 17 7 9 1000.3 999.3 0.0
16/06:00am 29.8 24.4 4.4 20 13.2 NNW 22 28 12 15 999.9 998.9 0.0
16/05:30am 30.6 24.8 4.4 19 13.6 N 24 30 13 16 999.6 998.6 0.0
16/05:00am 30.4 24.9 4.2 19 13.6 NNW 22 28 12 15 1000.0 999.0 0.0
16/04:30am 29.4 25.3 4.1 20 13.0 NW 15 19 8 10 1000.4 999.4 0.0
16/04:00am 30.9 26.1 4.6 19 13.8 WNW 19 22 10 12 1000.0 999.0 0.0
16/03:30am 32.4 26.6 4.2 17 14.8 N 24 32 13 17 999.3 998.3 0.0
16/03:00am 32.1 26.6 4.0 17 14.7 N 22 28 12 15 999.4 998.4 0.0
16/02:30am 32.1 26.6 4.0 17 14.7 N 22 28 12 15 999.5 998.5 0.0
16/02:00am 32.6 27.2 4.4 17 14.9 N 22 30 12 16 999.6 998.6 0.0
16/01:30am 33.4 27.6 4.2 16 15.4 N 24 33 13 18 999.7 998.7 0.0
16/01:00am 34.0 27.7 3.7 15 16.0 N 26 35 14 19 1000.2 999.2 0.0
16/12:30am 34.3 28.4 4.0 15 16.0 N 24 32 13 17 1000.5 999.5 0.0
16/12:00am 34.8 28.6 4.4 15 16.3 NNE 26 33 14 18 1001.1 1000.2 0.0
 
Date/Time
EDT
Temp
°C
App
Temp
°C
Dew
Point
Rel
Hum
%
Delta-T
°C
Wind Press
QNH
hPa
Press
MSL
hPa
Rain
since 9 am
mm
Dir
 
Spd
km/h
Gust
km/h
Spd
kts
Gust
kts
15/11:30pm 35.3 29.6 4.8 15 16.4 N 24 30 13 16 1001.4 1000.5 0.0
15/11:00pm 35.2 30.2 4.7 15 16.4 N 20 24 11 13 1001.7 1000.8 0.0
15/10:30pm 35.5 30.9 3.9 14 16.8 NNE 17 20 9 11 1001.7 1000.8 0.0
15/10:00pm 35.5 30.6 3.9 14 16.8 NE 19 24 10 13 1001.7 1000.8 0.0
15/09:30pm 36.2 32.5 4.5 14 17.0 NNW 13 35 7 19 1002.0 1001.1 0.0
15/09:00pm 36.5 32.3 3.7 13 17.5 N 15 54 8 29 1002.1 1001.2 0.0
15/08:50pm 36.1 30.5 5.4 15 16.7 N 24 61 13 33 1002.5 1001.6 0.0
15/08:30pm 35.9 31.4 4.2 14 16.9 NNE 17 20 9 11 1002.2 1001.3 0.0
15/08:00pm 36.4 31.4 3.6 13 17.5 NE 19 20 10 11 1002.1 1001.2 0.0
15/07:30pm 37.3 32.8 4.3 13 17.8 NNE 17 20 9 11 1002.3 1001.4 0.0
15/07:00pm 37.2 34.2 4.2 13 17.8 N 9 11 5 6 1002.4 1001.5 0.0
15/06:30pm 38.0 34.5 3.7 12 18.4 NNW 11 15 6 8 1002.6 1001.7 0.0
15/06:00pm 37.5 31.3 4.4 13 18.0 N 26 52 14 28 1002.9 1002.0 0.0
15/05:52pm 37.6 31.1 4.5 13 17.9 N 28 52 15 28 1002.8 1001.9 0.0
15/05:30pm 37.8 32.2 3.5 12 18.3 WNW 22 33 12 18 1003.4 1002.4 0.0
15/05:25pm 37.8 30.1 3.5 12 18.3 WNW 33 83 18 45 1003.3 1002.3 0.0
15/05:19pm 37.6 28.0 3.4 12 18.2 NW 43 83 23 45 1003.4 1002.4 0.0
15/05:16pm 38.0 29.6 3.7 12 18.4 NW 37 83 20 45 1002.6 1001.7 0.0
15/05:13pm 38.5 31.3 2.8 11 18.9 NW 30 52 16 28 1002.9 1002.0 0.0
15/05:00pm 38.8 32.5 1.7 10 19.5 NW 24 41 13 22 1002.9 1002.0 0.0
15/04:30pm 40.0 34.0 1.1 9 20.3 WNW 22 39 12 21 1003.3 1002.3 0.0
15/04:00pm 39.4 34.0 2.2 10 19.7 NW 20 33 11 18 1003.8 1002.8 0.0
15/03:30pm 39.4 33.2 2.2 10 19.6 NNW 24 33 13 18 1004.3 1003.3 0.0
15/03:00pm 39.6 34.2 2.3 10 19.8 NNW 20 37 11 20 1004.6 1003.6 0.0
15/02:39pm 39.2 32.2 2.0 10 19.6 NNW 28 46 15 25 1005.1 1004.1 0.0
15/02:30pm 38.6 32.3 1.6 10 19.3 NW 24 41 13 22 1005.1 1004.1 0.0
15/02:17pm 39.5 32.3 0.8 9 20.0 NNW 28 46 15 25 1005.2 1004.2 0.0
15/02:00pm 39.0 32.4 1.9 10 19.5 NNW 26 39 14 21 1005.5 1004.5 0.0
15/01:48pm 39.4 32.8 2.2 10 19.6 NW 26 46 14 25 1005.8 1004.8 0.0
15/01:30pm 39.4 33.2 2.2 10 19.6 NW 24 35 13 19 1006.1 1005.1 0.0
15/01:00pm 37.8 31.2 2.3 11 18.7 NNW 26 41 14 22 1006.6 1005.7 0.0
15/12:48pm 39.1 32.5 1.9 10 19.5 NNW 26 48 14 26 1006.7 1005.8 0.0
15/12:30pm 38.7 32.3 3.0 11 19.0 NW 26 39 14 21 1006.9 1006.0 0.0
15/12:00pm 38.0 31.1 2.4 11 18.8 NNW 28 43 15 23 1007.3 1006.4 0.0
15/11:30am 36.9 30.4 2.8 12 17.9 NNW 26 39 14 21 1007.4 1006.5 0.0
15/11:00am 36.4 28.7 2.4 12 17.8 NNW 32 41 17 22 1007.4 1006.5 0.0
15/10:30am 36.1 29.3 3.3 13 17.3 NNW 28 37 15 20 1007.7 1006.8 0.0
15/10:00am 35.2 28.5 3.7 14 16.7 NNW 28 35 15 19 1007.8 1006.9 0.0
15/09:30am 33.3 27.3 3.2 15 15.6 NNW 24 30 13 16 1007.9 1007.0 0.0
15/09:00am 31.8 26.1 2.9 16 14.8 NNW 22 28 12 15 1007.8 1006.9 0.0
15/08:30am 30.5 25.7 2.7 17 14.0 N 17 24 9 13 1007.6 1006.7 0.0
15/08:00am 29.1 24.9 3.9 20 12.9 NNW 15 17 8 9 1007.5 1006.6 0.0
15/07:30am 27.3 25.0 5.6 25 11.3 N 7 11 4 6 1007.0 1006.1 0.0
15/07:00am 25.0 21.9 5.7 29 10.0 N 11 13 6 7 1006.7 1005.8 0.0

Other Formats:

Comma delimited format used in spreadsheet applications
http://www.bom.gov.au/fwo/IDN60801/IDN60801.95699.axf

JavaScript Object Notation format (JSON) in row-major order
http://www.bom.gov.au/fwo/IDN60801/IDN60801.95699.json